sensor_id;sensor_type;location;lat;lon;timestamp;P1;durP1;ratioP1;P2;durP2;ratioP2
40058;SDS011;25763;49.972;8.568;2023-09-19T00:02:12;61.42;;;58.28;;
40058;SDS011;25763;49.972;8.568;2023-09-19T00:04:37;56.95;;;54.00;;
40058;SDS011;25763;49.972;8.568;2023-09-19T00:07:05;59.20;;;56.13;;
40058;SDS011;25763;49.972;8.568;2023-09-19T00:09:30;59.55;;;56.53;;
40058;SDS011;25763;49.972;8.568;2023-09-19T00:12:02;61.15;;;58.03;;
40058;SDS011;25763;49.972;8.568;2023-09-19T00:14:28;61.30;;;58.17;;
40058;SDS011;25763;49.972;8.568;2023-09-19T00:16:53;61.30;;;58.17;;
40058;SDS011;25763;49.972;8.568;2023-09-19T00:19:19;63.53;;;60.28;;
40058;SDS011;25763;49.972;8.568;2023-09-19T00:21:45;63.33;;;60.13;;
40058;SDS011;25763;49.972;8.568;2023-09-19T00:24:12;61.08;;;57.95;;
40058;SDS011;25763;49.972;8.568;2023-09-19T00:26:39;63.92;;;60.67;;
40058;SDS011;25763;49.972;8.568;2023-09-19T00:29:04;63.22;;;59.97;;
40058;SDS011;25763;49.972;8.568;2023-09-19T00:31:34;62.15;;;59.00;;
40058;SDS011;25763;49.972;8.568;2023-09-19T00:34:01;65.90;;;62.53;;
40058;SDS011;25763;49.972;8.568;2023-09-19T00:36:29;64.07;;;60.72;;
40058;SDS011;25763;49.972;8.568;2023-09-19T00:38:54;54.50;;;51.70;;
40058;SDS011;25763;49.972;8.568;2023-09-19T00:41:20;56.05;;;53.17;;
40058;SDS011;25763;49.972;8.568;2023-09-19T00:43:46;56.45;;;53.58;;
40058;SDS011;25763;49.972;8.568;2023-09-19T00:46:12;54.22;;;51.47;;
40058;SDS011;25763;49.972;8.568;2023-09-19T00:48:42;51.75;;;49.10;;
40058;SDS011;25763;49.972;8.568;2023-09-19T00:51:11;57.90;;;54.65;;
40058;SDS011;25763;49.972;8.568;2023-09-19T00:53:38;57.88;;;54.90;;
40058;SDS011;25763;49.972;8.568;2023-09-19T00:56:04;56.65;;;53.78;;
40058;SDS011;25763;49.972;8.568;2023-09-19T00:58:33;58.97;;;55.88;;
40058;SDS011;25763;49.972;8.568;2023-09-19T01:01:00;55.92;;;53.05;;
40058;SDS011;25763;49.972;8.568;2023-09-19T01:03:26;58.83;;;55.83;;
40058;SDS011;25763;49.972;8.568;2023-09-19T01:05:52;60.75;;;57.67;;
40058;SDS011;25763;49.972;8.568;2023-09-19T01:08:18;64.40;;;61.15;;
40058;SDS011;25763;49.972;8.568;2023-09-19T01:10:49;66.35;;;63.00;;
40058;SDS011;25763;49.972;8.568;2023-09-19T01:16:19;64.60;;;61.30;;
40058;SDS011;25763;49.972;8.568;2023-09-19T01:25:33;55.92;;;53.08;;
40058;SDS011;25763;49.972;8.568;2023-09-19T01:30:47;65.18;;;61.88;;
40058;SDS011;25763;49.972;8.568;2023-09-19T01:33:19;61.83;;;58.63;;
40058;SDS011;25763;49.972;8.568;2023-09-19T01:35:45;64.63;;;61.33;;
40058;SDS011;25763;49.972;8.568;2023-09-19T01:38:10;64.80;;;61.53;;
40058;SDS011;25763;49.972;8.568;2023-09-19T01:40:43;67.20;;;63.80;;
40058;SDS011;25763;49.972;8.568;2023-09-19T01:43:18;63.77;;;60.53;;
40058;SDS011;25763;49.972;8.568;2023-09-19T01:54:18;61.30;;;58.13;;
40058;SDS011;25763;49.972;8.568;2023-09-19T01:56:57;66.95;;;63.58;;
40058;SDS011;25763;49.972;8.568;2023-09-19T01:59:31;63.47;;;60.08;;
40058;SDS011;25763;49.972;8.568;2023-09-19T02:02:02;64.82;;;61.55;;
40058;SDS011;25763;49.972;8.568;2023-09-19T02:04:28;63.70;;;60.45;;
40058;SDS011;25763;49.972;8.568;2023-09-19T02:06:54;65.20;;;61.90;;
40058;SDS011;25763;49.972;8.568;2023-09-19T02:09:20;63.28;;;60.00;;
40058;SDS011;25763;49.972;8.568;2023-09-19T02:11:46;63.45;;;60.20;;
40058;SDS011;25763;49.972;8.568;2023-09-19T02:14:11;62.05;;;58.85;;
40058;SDS011;25763;49.972;8.568;2023-09-19T02:16:37;63.92;;;60.42;;
40058;SDS011;25763;49.972;8.568;2023-09-19T02:19:02;61.92;;;58.75;;
40058;SDS011;25763;49.972;8.568;2023-09-19T02:21:30;60.42;;;57.38;;
40058;SDS011;25763;49.972;8.568;2023-09-19T02:23:57;64.93;;;61.58;;
40058;SDS011;25763;49.972;8.568;2023-09-19T02:26:23;65.50;;;62.08;;
40058;SDS011;25763;49.972;8.568;2023-09-19T02:28:48;63.05;;;59.88;;
40058;SDS011;25763;49.972;8.568;2023-09-19T02:31:14;63.13;;;59.85;;
40058;SDS011;25763;49.972;8.568;2023-09-19T02:33:41;65.55;;;62.25;;
40058;SDS011;25763;49.972;8.568;2023-09-19T02:36:07;71.95;;;68.15;;
40058;SDS011;25763;49.972;8.568;2023-09-19T02:38:33;61.97;;;58.80;;
40058;SDS011;25763;49.972;8.568;2023-09-19T02:40:59;64.30;;;61.05;;
40058;SDS011;25763;49.972;8.568;2023-09-19T02:43:25;70.63;;;66.95;;
40058;SDS011;25763;49.972;8.568;2023-09-19T02:45:50;68.00;;;64.55;;
40058;SDS011;25763;49.972;8.568;2023-09-19T02:48:18;61.95;;;58.75;;
40058;SDS011;25763;49.972;8.568;2023-09-19T02:50:43;63.15;;;59.92;;
40058;SDS011;25763;49.972;8.568;2023-09-19T02:53:09;68.30;;;64.63;;
40058;SDS011;25763;49.972;8.568;2023-09-19T02:55:37;68.43;;;64.95;;
40058;SDS011;25763;49.972;8.568;2023-09-19T02:58:05;66.85;;;63.45;;
40058;SDS011;25763;49.972;8.568;2023-09-19T03:00:33;62.83;;;59.60;;
40058;SDS011;25763;49.972;8.568;2023-09-19T03:03:00;66.63;;;63.25;;
40058;SDS011;25763;49.972;8.568;2023-09-19T03:05:27;65.25;;;61.92;;
40058;SDS011;25763;49.972;8.568;2023-09-19T03:07:56;63.65;;;60.42;;
40058;SDS011;25763;49.972;8.568;2023-09-19T03:10:22;62.40;;;59.25;;
40058;SDS011;25763;49.972;8.568;2023-09-19T03:12:49;64.60;;;61.22;;
40058;SDS011;25763;49.972;8.568;2023-09-19T03:15:15;59.20;;;56.17;;
40058;SDS011;25763;49.972;8.568;2023-09-19T03:17:45;62.53;;;59.30;;
40058;SDS011;25763;49.972;8.568;2023-09-19T03:20:12;61.13;;;57.97;;
40058;SDS011;25763;49.972;8.568;2023-09-19T03:22:39;61.65;;;58.50;;
40058;SDS011;25763;49.972;8.568;2023-09-19T03:25:05;60.88;;;57.83;;
40058;SDS011;25763;49.972;8.568;2023-09-19T03:27:36;62.95;;;59.78;;
40058;SDS011;25763;49.972;8.568;2023-09-19T03:30:03;58.22;;;55.25;;
40058;SDS011;25763;49.972;8.568;2023-09-19T03:32:33;61.78;;;58.65;;
40058;SDS011;25763;49.972;8.568;2023-09-19T03:34:59;65.70;;;62.38;;
40058;SDS011;25763;49.972;8.568;2023-09-19T03:37:25;54.63;;;51.83;;
40058;SDS011;25763;49.972;8.568;2023-09-19T03:39:51;61.25;;;58.15;;
40058;SDS011;25763;49.972;8.568;2023-09-19T03:42:16;58.15;;;55.20;;
40058;SDS011;25763;49.972;8.568;2023-09-19T03:44:42;57.78;;;54.85;;
40058;SDS011;25763;49.972;8.568;2023-09-19T03:47:07;54.88;;;52.03;;
40058;SDS011;25763;49.972;8.568;2023-09-19T03:49:33;56.85;;;54.00;;
40058;SDS011;25763;49.972;8.568;2023-09-19T03:51:59;53.53;;;50.83;;
40058;SDS011;25763;49.972;8.568;2023-09-19T03:54:24;56.10;;;53.22;;
40058;SDS011;25763;49.972;8.568;2023-09-19T03:56:49;51.58;;;48.92;;
40058;SDS011;25763;49.972;8.568;2023-09-19T03:59:15;55.45;;;52.63;;
40058;SDS011;25763;49.972;8.568;2023-09-19T04:01:41;52.40;;;49.72;;
40058;SDS011;25763;49.972;8.568;2023-09-19T04:04:06;54.05;;;51.25;;
40058;SDS011;25763;49.972;8.568;2023-09-19T04:06:35;54.38;;;51.63;;
40058;SDS011;25763;49.972;8.568;2023-09-19T04:09:01;57.67;;;54.75;;
40058;SDS011;25763;49.972;8.568;2023-09-19T04:11:28;57.53;;;54.60;;
40058;SDS011;25763;49.972;8.568;2023-09-19T04:13:55;59.88;;;56.85;;
40058;SDS011;25763;49.972;8.568;2023-09-19T04:16:20;56.85;;;53.97;;
40058;SDS011;25763;49.972;8.568;2023-09-19T04:18:46;61.00;;;57.85;;
40058;SDS011;25763;49.972;8.568;2023-09-19T04:21:11;62.13;;;59.00;;
40058;SDS011;25763;49.972;8.568;2023-09-19T04:23:37;57.30;;;54.42;;
40058;SDS011;25763;49.972;8.568;2023-09-19T04:26:02;61.35;;;58.28;;
40058;SDS011;25763;49.972;8.568;2023-09-19T04:28:30;57.78;;;54.83;;
40058;SDS011;25763;49.972;8.568;2023-09-19T04:30:56;55.33;;;52.47;;
40058;SDS011;25763;49.972;8.568;2023-09-19T04:33:22;57.15;;;54.20;;
40058;SDS011;25763;49.972;8.568;2023-09-19T04:35:51;59.30;;;56.25;;
40058;SDS011;25763;49.972;8.568;2023-09-19T04:38:17;53.88;;;51.03;;
40058;SDS011;25763;49.972;8.568;2023-09-19T04:40:44;51.08;;;48.47;;
40058;SDS011;25763;49.972;8.568;2023-09-19T04:43:09;52.35;;;49.72;;
40058;SDS011;25763;49.972;8.568;2023-09-19T04:45:34;53.67;;;50.97;;
40058;SDS011;25763;49.972;8.568;2023-09-19T04:48:00;60.63;;;57.58;;
40058;SDS011;25763;49.972;8.568;2023-09-19T04:50:25;55.35;;;52.47;;
40058;SDS011;25763;49.972;8.568;2023-09-19T04:52:53;57.03;;;54.10;;
40058;SDS011;25763;49.972;8.568;2023-09-19T04:55:18;62.03;;;58.90;;
40058;SDS011;25763;49.972;8.568;2023-09-19T04:57:45;60.58;;;57.53;;
40058;SDS011;25763;49.972;8.568;2023-09-19T05:00:17;60.90;;;57.67;;
40058;SDS011;25763;49.972;8.568;2023-09-19T05:02:44;55.08;;;52.22;;
40058;SDS011;25763;49.972;8.568;2023-09-19T05:05:11;51.33;;;48.58;;
40058;SDS011;25763;49.972;8.568;2023-09-19T05:07:37;51.45;;;48.83;;
40058;SDS011;25763;49.972;8.568;2023-09-19T05:10:04;49.38;;;46.85;;
40058;SDS011;25763;49.972;8.568;2023-09-19T05:12:33;50.22;;;47.67;;
40058;SDS011;25763;49.972;8.568;2023-09-19T05:14:59;41.80;;;39.67;;
40058;SDS011;25763;49.972;8.568;2023-09-19T05:17:26;38.50;;;36.47;;
40058;SDS011;25763;49.972;8.568;2023-09-19T05:19:52;38.30;;;36.25;;
40058;SDS011;25763;49.972;8.568;2023-09-19T05:22:17;39.72;;;37.63;;
40058;SDS011;25763;49.972;8.568;2023-09-19T05:24:43;38.60;;;36.60;;
40058;SDS011;25763;49.972;8.568;2023-09-19T05:27:12;40.88;;;38.78;;
40058;SDS011;25763;49.972;8.568;2023-09-19T05:29:37;42.08;;;39.92;;
40058;SDS011;25763;49.972;8.568;2023-09-19T05:32:03;43.08;;;40.88;;
40058;SDS011;25763;49.972;8.568;2023-09-19T05:34:29;42.20;;;40.00;;
40058;SDS011;25763;49.972;8.568;2023-09-19T05:36:55;49.75;;;47.22;;
40058;SDS011;25763;49.972;8.568;2023-09-19T05:39:21;45.63;;;43.25;;
40058;SDS011;25763;49.972;8.568;2023-09-19T05:41:48;47.38;;;44.97;;
40058;SDS011;25763;49.972;8.568;2023-09-19T05:44:13;49.45;;;46.72;;
40058;SDS011;25763;49.972;8.568;2023-09-19T05:46:41;53.58;;;50.88;;
40058;SDS011;25763;49.972;8.568;2023-09-19T05:49:07;50.58;;;48.00;;
40058;SDS011;25763;49.972;8.568;2023-09-19T05:51:32;52.85;;;50.17;;
40058;SDS011;25763;49.972;8.568;2023-09-19T05:53:57;52.75;;;50.05;;
40058;SDS011;25763;49.972;8.568;2023-09-19T05:56:23;53.63;;;50.88;;
40058;SDS011;25763;49.972;8.568;2023-09-19T05:58:49;52.67;;;49.97;;
40058;SDS011;25763;49.972;8.568;2023-09-19T06:01:16;52.60;;;49.50;;
40058;SDS011;25763;49.972;8.568;2023-09-19T06:03:43;47.58;;;45.05;;
40058;SDS011;25763;49.972;8.568;2023-09-19T06:06:08;43.80;;;41.55;;
40058;SDS011;25763;49.972;8.568;2023-09-19T06:08:34;43.85;;;41.65;;
40058;SDS011;25763;49.972;8.568;2023-09-19T06:11:00;46.05;;;43.67;;
40058;SDS011;25763;49.972;8.568;2023-09-19T06:13:27;45.33;;;42.97;;
40058;SDS011;25763;49.972;8.568;2023-09-19T06:15:54;39.53;;;37.50;;
40058;SDS011;25763;49.972;8.568;2023-09-19T06:18:23;35.00;;;33.17;;
40058;SDS011;25763;49.972;8.568;2023-09-19T06:20:51;35.92;;;34.08;;
40058;SDS011;25763;49.972;8.568;2023-09-19T06:23:17;34.38;;;32.58;;
40058;SDS011;25763;49.972;8.568;2023-09-19T06:25:43;34.78;;;32.97;;
40058;SDS011;25763;49.972;8.568;2023-09-19T06:28:09;35.22;;;33.42;;
40058;SDS011;25763;49.972;8.568;2023-09-19T06:30:38;32.80;;;31.08;;
40058;SDS011;25763;49.972;8.568;2023-09-19T06:33:06;31.35;;;29.70;;
40058;SDS011;25763;49.972;8.568;2023-09-19T06:35:32;29.45;;;27.90;;
40058;SDS011;25763;49.972;8.568;2023-09-19T06:38:02;26.30;;;24.90;;
40058;SDS011;25763;49.972;8.568;2023-09-19T06:40:29;23.58;;;22.30;;
40058;SDS011;25763;49.972;8.568;2023-09-19T06:42:56;23.98;;;22.58;;
40058;SDS011;25763;49.972;8.568;2023-09-19T06:45:22;24.65;;;23.33;;
40058;SDS011;25763;49.972;8.568;2023-09-19T06:47:50;24.70;;;23.38;;
40058;SDS011;25763;49.972;8.568;2023-09-19T06:50:20;24.73;;;23.23;;
40058;SDS011;25763;49.972;8.568;2023-09-19T06:52:51;22.30;;;21.10;;
40058;SDS011;25763;49.972;8.568;2023-09-19T06:55:19;22.65;;;21.40;;
40058;SDS011;25763;49.972;8.568;2023-09-19T06:57:45;22.08;;;20.88;;
40058;SDS011;25763;49.972;8.568;2023-09-19T07:00:11;21.35;;;20.15;;
40058;SDS011;25763;49.972;8.568;2023-09-19T07:05:26;22.13;;;20.63;;
40058;SDS011;25763;49.972;8.568;2023-09-19T07:07:56;19.77;;;18.67;;
40058;SDS011;25763;49.972;8.568;2023-09-19T07:10:26;21.85;;;20.65;;
40058;SDS011;25763;49.972;8.568;2023-09-19T07:12:59;20.10;;;19.00;;
40058;SDS011;25763;49.972;8.568;2023-09-19T07:15:27;23.02;;;21.77;;
40058;SDS011;25763;49.972;8.568;2023-09-19T07:17:55;21.90;;;20.70;;
40058;SDS011;25763;49.972;8.568;2023-09-19T07:20:21;22.70;;;21.50;;
40058;SDS011;25763;49.972;8.568;2023-09-19T07:22:52;23.15;;;21.90;;
40058;SDS011;25763;49.972;8.568;2023-09-19T07:25:19;17.88;;;16.88;;
40058;SDS011;25763;49.972;8.568;2023-09-19T07:27:45;18.42;;;17.42;;
40058;SDS011;25763;49.972;8.568;2023-09-19T07:30:11;20.15;;;19.05;;
40058;SDS011;25763;49.972;8.568;2023-09-19T07:32:37;16.15;;;15.25;;
40058;SDS011;25763;49.972;8.568;2023-09-19T07:35:03;19.83;;;18.73;;
40058;SDS011;25763;49.972;8.568;2023-09-19T07:37:30;14.90;;;13.93;;
40058;SDS011;25763;49.972;8.568;2023-09-19T07:39:58;16.38;;;15.48;;
40058;SDS011;25763;49.972;8.568;2023-09-19T07:42:24;15.63;;;14.73;;
40058;SDS011;25763;49.972;8.568;2023-09-19T07:44:50;15.90;;;14.90;;
40058;SDS011;25763;49.972;8.568;2023-09-19T07:47:16;14.70;;;13.85;;
40058;SDS011;25763;49.972;8.568;2023-09-19T07:49:42;15.95;;;15.05;;
40058;SDS011;25763;49.972;8.568;2023-09-19T07:52:08;14.27;;;13.48;;
40058;SDS011;25763;49.972;8.568;2023-09-19T07:54:34;17.27;;;16.27;;
40058;SDS011;25763;49.972;8.568;2023-09-19T07:57:03;14.75;;;13.85;;
40058;SDS011;25763;49.972;8.568;2023-09-19T07:59:29;14.48;;;13.57;;
40058;SDS011;25763;49.972;8.568;2023-09-19T08:01:54;14.40;;;13.50;;
40058;SDS011;25763;49.972;8.568;2023-09-19T08:04:20;14.43;;;13.63;;
40058;SDS011;25763;49.972;8.568;2023-09-19T08:06:45;15.63;;;14.73;;
40058;SDS011;25763;49.972;8.568;2023-09-19T08:09:11;14.48;;;13.68;;
40058;SDS011;25763;49.972;8.568;2023-09-19T08:11:37;14.00;;;13.20;;
40058;SDS011;25763;49.972;8.568;2023-09-19T08:14:04;16.85;;;15.93;;
40058;SDS011;25763;49.972;8.568;2023-09-19T08:16:31;14.38;;;13.45;;
40058;SDS011;25763;49.972;8.568;2023-09-19T08:18:56;14.38;;;13.57;;
40058;SDS011;25763;49.972;8.568;2023-09-19T08:21:22;14.15;;;13.23;;
40058;SDS011;25763;49.972;8.568;2023-09-19T08:23:49;14.63;;;13.73;;
40058;SDS011;25763;49.972;8.568;2023-09-19T08:26:14;13.75;;;12.95;;
40058;SDS011;25763;49.972;8.568;2023-09-19T08:28:40;14.98;;;14.13;;
40058;SDS011;25763;49.972;8.568;2023-09-19T08:31:08;14.25;;;13.45;;
40058;SDS011;25763;49.972;8.568;2023-09-19T08:33:34;14.93;;;14.10;;
40058;SDS011;25763;49.972;8.568;2023-09-19T08:36:04;15.18;;;14.27;;
40058;SDS011;25763;49.972;8.568;2023-09-19T08:38:33;14.30;;;13.40;;
40058;SDS011;25763;49.972;8.568;2023-09-19T08:41:00;15.10;;;14.20;;
40058;SDS011;25763;49.972;8.568;2023-09-19T08:43:29;14.70;;;13.80;;
40058;SDS011;25763;49.972;8.568;2023-09-19T08:46:03;15.18;;;14.27;;
40058;SDS011;25763;49.972;8.568;2023-09-19T08:48:39;14.48;;;13.68;;
40058;SDS011;25763;49.972;8.568;2023-09-19T08:51:27;14.27;;;13.48;;
40058;SDS011;25763;49.972;8.568;2023-09-19T08:54:05;18.05;;;17.05;;
40058;SDS011;25763;49.972;8.568;2023-09-19T08:56:32;28.05;;;26.58;;
40058;SDS011;25763;49.972;8.568;2023-09-19T08:59:05;34.50;;;32.70;;
40058;SDS011;25763;49.972;8.568;2023-09-19T09:01:34;29.73;;;28.17;;
40058;SDS011;25763;49.972;8.568;2023-09-19T09:04:01;25.73;;;24.33;;
40058;SDS011;25763;49.972;8.568;2023-09-19T09:06:27;27.40;;;25.90;;
40058;SDS011;25763;49.972;8.568;2023-09-19T09:11:23;24.00;;;22.70;;
40058;SDS011;25763;49.972;8.568;2023-09-19T09:13:50;38.90;;;26.10;;
40058;SDS011;25763;49.972;8.568;2023-09-19T09:16:16;29.60;;;28.08;;
40058;SDS011;25763;49.972;8.568;2023-09-19T09:18:44;27.05;;;25.25;;
40058;SDS011;25763;49.972;8.568;2023-09-19T09:21:10;27.15;;;25.63;;
40058;SDS011;25763;49.972;8.568;2023-09-19T09:23:36;41.38;;;39.28;;
40058;SDS011;25763;49.972;8.568;2023-09-19T09:26:02;41.50;;;39.40;;
40058;SDS011;25763;49.972;8.568;2023-09-19T09:28:29;32.90;;;31.20;;
40058;SDS011;25763;49.972;8.568;2023-09-19T09:30:56;59.53;;;55.97;;
40058;SDS011;25763;49.972;8.568;2023-09-19T09:33:24;52.30;;;49.60;;
40058;SDS011;25763;49.972;8.568;2023-09-19T09:35:50;45.33;;;43.03;;
40058;SDS011;25763;49.972;8.568;2023-09-19T09:38:26;56.70;;;53.67;;
40058;SDS011;25763;49.972;8.568;2023-09-19T09:40:54;50.10;;;47.55;;
40058;SDS011;25763;49.972;8.568;2023-09-19T09:43:27;66.25;;;62.95;;
40058;SDS011;25763;49.972;8.568;2023-09-19T09:48:48;52.35;;;49.70;;
40058;SDS011;25763;49.972;8.568;2023-09-19T09:51:46;48.85;;;46.35;;
40058;SDS011;25763;49.972;8.568;2023-09-19T09:54:24;27.38;;;25.90;;
40058;SDS011;25763;49.972;8.568;2023-09-19T09:56:58;28.33;;;26.65;;
40058;SDS011;25763;49.972;8.568;2023-09-19T09:59:43;29.63;;;27.95;;
40058;SDS011;25763;49.972;8.568;2023-09-19T10:02:11;29.17;;;27.63;;
40058;SDS011;25763;49.972;8.568;2023-09-19T10:04:45;28.33;;;26.83;;
40058;SDS011;25763;49.972;8.568;2023-09-19T10:07:26;30.90;;;29.27;;
40058;SDS011;25763;49.972;8.568;2023-09-19T10:09:57;31.90;;;30.20;;
40058;SDS011;25763;49.972;8.568;2023-09-19T10:12:29;29.25;;;27.70;;
40058;SDS011;25763;49.972;8.568;2023-09-19T10:14:56;34.42;;;32.65;;
40058;SDS011;25763;49.972;8.568;2023-09-19T10:17:25;30.45;;;28.80;;
40058;SDS011;25763;49.972;8.568;2023-09-19T10:19:56;64.57;;;61.35;;
40058;SDS011;25763;49.972;8.568;2023-09-19T10:22:30;69.00;;;65.45;;
40058;SDS011;25763;49.972;8.568;2023-09-19T10:24:57;56.08;;;53.25;;
40058;SDS011;25763;49.972;8.568;2023-09-19T10:27:25;49.90;;;47.38;;
40058;SDS011;25763;49.972;8.568;2023-09-19T10:29:51;40.03;;;37.92;;
40058;SDS011;25763;49.972;8.568;2023-09-19T10:34:48;30.50;;;28.90;;
40058;SDS011;25763;49.972;8.568;2023-09-19T10:37:15;32.95;;;31.25;;
40058;SDS011;25763;49.972;8.568;2023-09-19T10:39:44;33.35;;;31.60;;
40058;SDS011;25763;49.972;8.568;2023-09-19T10:42:11;36.35;;;34.30;;
40058;SDS011;25763;49.972;8.568;2023-09-19T10:44:42;34.53;;;32.45;;
40058;SDS011;25763;49.972;8.568;2023-09-19T10:47:10;43.63;;;41.38;;
40058;SDS011;25763;49.972;8.568;2023-09-19T10:49:42;42.78;;;40.63;;
40058;SDS011;25763;49.972;8.568;2023-09-19T10:52:11;35.08;;;33.28;;
40058;SDS011;25763;49.972;8.568;2023-09-19T10:54:44;35.90;;;33.85;;
40058;SDS011;25763;49.972;8.568;2023-09-19T10:57:18;44.83;;;42.42;;
40058;SDS011;25763;49.972;8.568;2023-09-19T11:00:00;41.15;;;39.03;;
40058;SDS011;25763;49.972;8.568;2023-09-19T11:03:04;40.63;;;38.55;;
40058;SDS011;25763;49.972;8.568;2023-09-19T11:05:34;46.63;;;44.22;;
40058;SDS011;25763;49.972;8.568;2023-09-19T11:08:08;49.22;;;46.75;;
40058;SDS011;25763;49.972;8.568;2023-09-19T11:13:23;39.78;;;37.60;;
40058;SDS011;25763;49.972;8.568;2023-09-19T11:26:41;64.38;;;61.13;;
40058;SDS011;25763;49.972;8.568;2023-09-19T11:29:29;64.25;;;61.03;;
40058;SDS011;25763;49.972;8.568;2023-09-19T11:31:56;65.18;;;61.92;;
40058;SDS011;25763;49.972;8.568;2023-09-19T11:39:37;63.65;;;60.47;;
40058;SDS011;25763;49.972;8.568;2023-09-19T11:44:52;53.75;;;51.05;;
40058;SDS011;25763;49.972;8.568;2023-09-19T11:47:21;52.65;;;49.97;;
40058;SDS011;25763;49.972;8.568;2023-09-19T11:49:49;60.30;;;57.30;;
40058;SDS011;25763;49.972;8.568;2023-09-19T11:52:21;66.75;;;63.38;;
40058;SDS011;25763;49.972;8.568;2023-09-19T11:54:54;79.45;;;75.40;;
40058;SDS011;25763;49.972;8.568;2023-09-19T11:57:22;81.70;;;77.68;;
40058;SDS011;25763;49.972;8.568;2023-09-19T11:59:47;91.47;;;86.97;;
40058;SDS011;25763;49.972;8.568;2023-09-19T12:02:13;83.25;;;79.10;;
40058;SDS011;25763;49.972;8.568;2023-09-19T12:04:53;93.30;;;88.65;;
40058;SDS011;25763;49.972;8.568;2023-09-19T12:07:20;105.63;;;100.43;;
40058;SDS011;25763;49.972;8.568;2023-09-19T12:09:50;96.65;;;91.93;;
40058;SDS011;25763;49.972;8.568;2023-09-19T12:14:52;72.32;;;68.50;;
40058;SDS011;25763;49.972;8.568;2023-09-19T12:17:19;55.17;;;52.35;;
40058;SDS011;25763;49.972;8.568;2023-09-19T12:19:55;54.28;;;51.53;;
40058;SDS011;25763;49.972;8.568;2023-09-19T12:22:21;56.67;;;53.75;;
40058;SDS011;25763;49.972;8.568;2023-09-19T12:24:46;107.75;;;102.43;;
40058;SDS011;25763;49.972;8.568;2023-09-19T12:27:13;76.82;;;72.82;;
40058;SDS011;25763;49.972;8.568;2023-09-19T12:29:42;57.65;;;54.78;;
40058;SDS011;25763;49.972;8.568;2023-09-19T12:32:13;77.90;;;74.10;;
40058;SDS011;25763;49.972;8.568;2023-09-19T12:34:41;86.88;;;82.50;;
40058;SDS011;25763;49.972;8.568;2023-09-19T12:37:12;58.10;;;55.20;;
40058;SDS011;25763;49.972;8.568;2023-09-19T12:39:52;106.57;;;101.30;;
40058;SDS011;25763;49.972;8.568;2023-09-19T12:42:32;73.60;;;69.93;;
40058;SDS011;25763;49.972;8.568;2023-09-19T12:45:00;77.50;;;73.65;;
40058;SDS011;25763;49.972;8.568;2023-09-19T12:47:27;80.18;;;76.07;;
40058;SDS011;25763;49.972;8.568;2023-09-19T12:52:40;67.13;;;63.72;;
40058;SDS011;25763;49.972;8.568;2023-09-19T12:55:18;68.38;;;64.95;;
40058;SDS011;25763;49.972;8.568;2023-09-19T13:00:37;93.15;;;88.55;;
40058;SDS011;25763;49.972;8.568;2023-09-19T13:03:26;96.40;;;91.57;;
40058;SDS011;25763;49.972;8.568;2023-09-19T13:06:00;60.63;;;57.55;;
40058;SDS011;25763;49.972;8.568;2023-09-19T13:08:28;54.95;;;52.20;;
40058;SDS011;25763;49.972;8.568;2023-09-19T13:13:40;61.38;;;58.17;;
40058;SDS011;25763;49.972;8.568;2023-09-19T13:16:26;57.38;;;54.35;;
40058;SDS011;25763;49.972;8.568;2023-09-19T13:18:53;72.40;;;68.82;;
40058;SDS011;25763;49.972;8.568;2023-09-19T13:21:28;99.68;;;94.80;;
40058;SDS011;25763;49.972;8.568;2023-09-19T13:24:17;55.60;;;52.83;;
40058;SDS011;25763;49.972;8.568;2023-09-19T13:26:53;63.05;;;59.85;;
40058;SDS011;25763;49.972;8.568;2023-09-19T13:29:19;59.85;;;56.78;;
40058;SDS011;25763;49.972;8.568;2023-09-19T13:31:48;57.75;;;54.85;;
40058;SDS011;25763;49.972;8.568;2023-09-19T13:34:15;64.07;;;60.90;;
40058;SDS011;25763;49.972;8.568;2023-09-19T13:36:42;63.08;;;59.90;;
40058;SDS011;25763;49.972;8.568;2023-09-19T13:39:08;67.93;;;64.55;;
40058;SDS011;25763;49.972;8.568;2023-09-19T13:41:34;65.15;;;61.85;;
40058;SDS011;25763;49.972;8.568;2023-09-19T13:44:02;51.53;;;48.92;;
40058;SDS011;25763;49.972;8.568;2023-09-19T13:46:30;59.75;;;56.65;;
40058;SDS011;25763;49.972;8.568;2023-09-19T13:49:01;55.03;;;52.25;;
40058;SDS011;25763;49.972;8.568;2023-09-19T13:51:31;56.75;;;53.92;;
40058;SDS011;25763;49.972;8.568;2023-09-19T13:53:57;62.00;;;58.90;;
40058;SDS011;25763;49.972;8.568;2023-09-19T13:56:22;60.80;;;57.80;;
40058;SDS011;25763;49.972;8.568;2023-09-19T13:58:48;74.10;;;70.40;;
40058;SDS011;25763;49.972;8.568;2023-09-19T14:01:13;48.67;;;46.20;;
40058;SDS011;25763;49.972;8.568;2023-09-19T14:03:39;48.05;;;45.60;;
40058;SDS011;25763;49.972;8.568;2023-09-19T14:06:05;65.40;;;62.15;;
40058;SDS011;25763;49.972;8.568;2023-09-19T14:08:31;66.70;;;63.38;;
40058;SDS011;25763;49.972;8.568;2023-09-19T14:10:58;70.43;;;66.93;;
40058;SDS011;25763;49.972;8.568;2023-09-19T14:13:23;67.53;;;64.20;;
40058;SDS011;25763;49.972;8.568;2023-09-19T14:15:50;75.93;;;71.88;;
40058;SDS011;25763;49.972;8.568;2023-09-19T14:18:16;77.57;;;73.72;;
40058;SDS011;25763;49.972;8.568;2023-09-19T14:20:41;81.40;;;77.40;;
40058;SDS011;25763;49.972;8.568;2023-09-19T14:23:07;77.25;;;73.40;;
40058;SDS011;25763;49.972;8.568;2023-09-19T14:25:35;89.75;;;85.28;;
40058;SDS011;25763;49.972;8.568;2023-09-19T14:28:01;95.05;;;90.38;;
40058;SDS011;25763;49.972;8.568;2023-09-19T14:30:27;83.07;;;78.97;;
40058;SDS011;25763;49.972;8.568;2023-09-19T14:32:52;95.22;;;90.55;;
40058;SDS011;25763;49.972;8.568;2023-09-19T14:35:18;92.07;;;87.57;;
40058;SDS011;25763;49.972;8.568;2023-09-19T14:37:44;101.03;;;95.72;;
40058;SDS011;25763;49.972;8.568;2023-09-19T14:40:10;99.18;;;94.32;;
40058;SDS011;25763;49.972;8.568;2023-09-19T14:42:38;88.95;;;84.28;;
40058;SDS011;25763;49.972;8.568;2023-09-19T14:45:04;101.38;;;96.40;;
40058;SDS011;25763;49.972;8.568;2023-09-19T14:47:31;101.90;;;96.88;;
40058;SDS011;25763;49.972;8.568;2023-09-19T14:49:59;101.25;;;96.30;;
40058;SDS011;25763;49.972;8.568;2023-09-19T14:52:25;97.70;;;92.88;;
40058;SDS011;25763;49.972;8.568;2023-09-19T14:54:53;102.60;;;97.00;;
40058;SDS011;25763;49.972;8.568;2023-09-19T14:57:19;88.82;;;84.47;;
40058;SDS011;25763;49.972;8.568;2023-09-19T14:59:44;102.35;;;97.32;;
40058;SDS011;25763;49.972;8.568;2023-09-19T15:02:10;92.80;;;88.20;;
40058;SDS011;25763;49.972;8.568;2023-09-19T15:04:35;76.38;;;72.60;;
40058;SDS011;25763;49.972;8.568;2023-09-19T15:07:01;86.55;;;82.28;;
40058;SDS011;25763;49.972;8.568;2023-09-19T15:09:28;77.10;;;73.30;;
40058;SDS011;25763;49.972;8.568;2023-09-19T15:11:53;85.13;;;80.93;;
40058;SDS011;25763;49.972;8.568;2023-09-19T15:14:19;85.78;;;81.55;;
40058;SDS011;25763;49.972;8.568;2023-09-19T15:16:46;89.25;;;84.63;;
40058;SDS011;25763;49.972;8.568;2023-09-19T15:19:13;89.70;;;85.30;;
40058;SDS011;25763;49.972;8.568;2023-09-19T15:21:38;90.80;;;86.35;;
40058;SDS011;25763;49.972;8.568;2023-09-19T15:24:04;88.47;;;84.13;;
40058;SDS011;25763;49.972;8.568;2023-09-19T15:26:30;89.70;;;85.30;;
40058;SDS011;25763;49.972;8.568;2023-09-19T15:28:56;86.85;;;82.55;;
40058;SDS011;25763;49.972;8.568;2023-09-19T15:31:21;96.18;;;91.45;;